Time;durP1;ratioP1;P1;durP2;ratioP2;P2;SDS_P1;SDS_P2;PMS_P1;PMS_P2;Temp;Humidity;BMP_temperature;BMP_pressure;BME280_temperature;BME280_humidity;BME280_pressure;Samples;Min_cycle;Max_cycle;Signal;HPM_P1;HPM_P2
2022/05/21 00:00:14;;;;;;;2.03;1.90;;;;;;;;;;5140331;27;20202;-60
2022/05/21 00:02:41;;;;;;;2.00;1.90;;;;;;;;;;5140248;27;20334;-60
2022/05/21 00:05:09;;;;;;;2.28;2.08;;;;;;;;;;5140377;27;20195;-60
2022/05/21 00:07:37;;;;;;;2.03;1.70;;;;;;;;;;5139882;27;20296;-60
2022/05/21 00:10:05;;;;;;;2.55;1.75;;;;;;;;;;5140009;27;20202;-60
2022/05/21 00:12:34;;;;;;;1.73;1.63;;;;;;;;;;5140096;27;20198;-60
2022/05/21 00:15:03;;;;;;;2.70;1.80;;;;;;;;;;5140243;27;20244;-60
2022/05/21 00:17:30;;;;;;;1.70;1.60;;;;;;;;;;5123707;27;20203;-60
2022/05/21 00:19:57;;;;;;;3.38;1.80;;;;;;;;;;5119845;28;20203;-60
2022/05/21 00:22:25;;;;;;;2.40;1.90;;;;;;;;;;5118846;28;20242;-60
2022/05/21 00:24:52;;;;;;;1.83;1.73;;;;;;;;;;5125830;27;20194;-59
2022/05/21 00:27:20;;;;;;;2.17;1.95;;;;;;;;;;5139685;27;20299;-60
2022/05/21 00:29:47;;;;;;;1.80;1.70;;;;;;;;;;5140277;27;20604;-60
2022/05/21 00:32:16;;;;;;;2.75;1.63;;;;;;;;;;5140287;27;20198;-61
2022/05/21 00:34:43;;;;;;;1.80;1.70;;;;;;;;;;5139698;27;20199;-60
2022/05/21 00:37:12;;;;;;;2.28;1.55;;;;;;;;;;5139849;27;20213;-60
2022/05/21 00:39:39;;;;;;;1.90;1.70;;;;;;;;;;5139854;27;20202;-60
2022/05/21 00:42:07;;;;;;;5.47;1.65;;;;;;;;;;5129352;27;20218;-60
2022/05/21 00:44:34;;;;;;;1.65;1.50;;;;;;;;;;5119451;28;20202;-60
2022/05/21 00:47:01;;;;;;;1.70;1.60;;;;;;;;;;5119039;28;20594;-60
2022/05/21 00:49:33;;;;;;;1.65;1.55;;;;;;;;;;5118841;28;20199;-60
2022/05/21 00:52:07;;;;;;;1.67;1.48;;;;;;;;;;5118604;28;20195;-60
2022/05/21 00:54:35;;;;;;;2.72;1.60;;;;;;;;;;5118887;28;20594;-60
2022/05/21 00:57:05;;;;;;;2.40;1.83;;;;;;;;;;5119350;28;20234;-61
2022/05/21 00:59:47;;;;;;;1.95;1.45;;;;;;;;;;5118724;28;20483;-60
2022/05/21 01:02:16;;;;;;;1.65;1.55;;;;;;;;;;5118889;28;20234;-60
2022/05/21 01:04:45;;;;;;;1.70;1.60;;;;;;;;;;5118793;28;20230;-64
2022/05/21 01:07:14;;;;;;;1.67;1.58;;;;;;;;;;5118544;28;20295;-60
2022/05/21 01:09:44;;;;;;;1.98;1.63;;;;;;;;;;5138276;27;20654;-60
2022/05/21 01:12:12;;;;;;;1.65;1.55;;;;;;;;;;5139432;27;20206;-60
2022/05/21 01:14:39;;;;;;;1.60;1.50;;;;;;;;;;5138933;27;20536;-60
2022/05/21 01:17:07;;;;;;;1.52;1.40;;;;;;;;;;5139485;27;20202;-60
2022/05/21 01:19:53;;;;;;;1.55;1.45;;;;;;;;;;5139134;27;20216;-60
2022/05/21 01:22:26;;;;;;;1.85;1.25;;;;;;;;;;5139238;27;20503;-60
2022/05/21 01:24:53;;;;;;;1.85;1.40;;;;;;;;;;5139165;27;20206;-61
2022/05/21 01:27:21;;;;;;;1.60;1.50;;;;;;;;;;5138651;27;20204;-60
2022/05/21 01:29:49;;;;;;;1.40;1.30;;;;;;;;;;5138820;27;20494;-60
2022/05/21 01:32:18;;;;;;;2.17;1.35;;;;;;;;;;5138985;27;20198;-60
2022/05/21 01:34:45;;;;;;;1.35;1.25;;;;;;;;;;5138512;27;20473;-60
2022/05/21 01:37:13;;;;;;;1.80;1.30;;;;;;;;;;5118572;28;20222;-60
2022/05/21 01:39:42;;;;;;;1.50;1.40;;;;;;;;;;5118366;28;20195;-60
2022/05/21 01:42:09;;;;;;;1.20;1.10;;;;;;;;;;5118521;28;20237;-60
2022/05/21 01:44:39;;;;;;;2.55;1.30;;;;;;;;;;5118211;28;20202;-60
2022/05/21 01:47:08;;;;;;;3.10;1.30;;;;;;;;;;5117851;28;20565;-59
2022/05/21 01:49:35;;;;;;;1.58;0.95;;;;;;;;;;5118116;28;20210;-60
2022/05/21 01:52:03;;;;;;;1.20;1.10;;;;;;;;;;5118355;28;20199;-59
2022/05/21 01:54:30;;;;;;;1.30;1.20;;;;;;;;;;5118512;28;20203;-60
2022/05/21 01:57:01;;;;;;;1.50;1.40;;;;;;;;;;5118733;28;20203;-60
2022/05/21 01:59:28;;;;;;;1.50;1.40;;;;;;;;;;5118378;28;20202;-59
2022/05/21 02:01:56;;;;;;;1.80;1.20;;;;;;;;;;5117562;28;20231;-60
2022/05/21 02:04:24;;;;;;;1.30;1.20;;;;;;;;;;5135052;28;20205;-59
2022/05/21 02:06:51;;;;;;;1.30;1.20;;;;;;;;;;5139037;28;20464;-60
2022/05/21 02:09:18;;;;;;;1.92;1.00;;;;;;;;;;5139066;28;20213;-60
2022/05/21 02:11:46;;;;;;;1.42;1.30;;;;;;;;;;5138965;28;20208;-60
2022/05/21 02:14:15;;;;;;;1.25;1.20;;;;;;;;;;5138265;28;20229;-60
2022/05/21 02:16:42;;;;;;;1.30;1.20;;;;;;;;;;5138824;28;20206;-59
2022/05/21 02:19:10;;;;;;;1.20;1.10;;;;;;;;;;5138415;27;20206;-60
2022/05/21 02:21:38;;;;;;;1.13;1.10;;;;;;;;;;5142202;27;20222;-60
2022/05/21 02:24:07;;;;;;;1.15;1.05;;;;;;;;;;5142709;27;20214;-60
2022/05/21 02:26:35;;;;;;;1.00;1.00;;;;;;;;;;5142189;27;20261;-59
2022/05/21 02:29:03;;;;;;;1.90;1.10;;;;;;;;;;5140997;27;20216;-60
2022/05/21 02:31:32;;;;;;;1.58;1.10;;;;;;;;;;5142385;27;20581;-60
2022/05/21 02:33:59;;;;;;;1.05;0.98;;;;;;;;;;5142801;27;20202;-60
2022/05/21 02:41:53;;;;;;;0.95;0.82;;;;;;;;;;5141986;27;20287;-60
2022/05/21 02:44:21;;;;;;;1.00;1.00;;;;;;;;;;5142202;27;20207;-60
2022/05/21 02:46:49;;;;;;;1.63;1.00;;;;;;;;;;5142093;27;20206;-59
2022/05/21 02:49:17;;;;;;;1.55;1.17;;;;;;;;;;5142073;27;20210;-60
2022/05/21 02:51:44;;;;;;;1.30;1.20;;;;;;;;;;5142267;27;20198;-59
2022/05/21 02:54:14;;;;;;;1.15;1.15;;;;;;;;;;5142264;27;20283;-59
2022/05/21 02:56:44;;;;;;;0.93;0.93;;;;;;;;;;5125613;27;20203;-59
2022/05/21 02:59:11;;;;;;;1.15;1.10;;;;;;;;;;5121186;28;20195;-60
2022/05/21 03:01:39;;;;;;;0.85;0.80;;;;;;;;;;5121418;27;20253;-60
2022/05/21 03:04:08;;;;;;;1.25;1.15;;;;;;;;;;5121217;28;20263;-59
2022/05/21 03:06:36;;;;;;;1.05;0.98;;;;;;;;;;5121033;28;20207;-59
2022/05/21 03:11:49;;;;;;;0.95;0.85;;;;;;;;;;5120770;28;20198;-59
2022/05/21 03:14:16;;;;;;;1.05;1.00;;;;;;;;;;5120512;28;20230;-59
2022/05/21 03:16:44;;;;;;;1.27;0.90;;;;;;;;;;5121274;28;20202;-60
2022/05/21 03:19:13;;;;;;;0.85;0.85;;;;;;;;;;5120767;28;20207;-60
2022/05/21 03:21:40;;;;;;;1.02;0.90;;;;;;;;;;5120659;28;20202;-60
2022/05/21 03:24:08;;;;;;;1.13;0.90;;;;;;;;;;5137471;27;20217;-60
2022/05/21 03:26:36;;;;;;;0.98;0.90;;;;;;;;;;5141027;27;20202;-60
2022/05/21 03:29:03;;;;;;;0.90;0.80;;;;;;;;;;5141094;27;20584;-60
2022/05/21 03:31:30;;;;;;;0.80;0.80;;;;;;;;;;5140980;27;20216;-60
2022/05/21 03:33:58;;;;;;;1.52;1.00;;;;;;;;;;5141057;27;20202;-60
2022/05/21 03:36:27;;;;;;;0.90;0.77;;;;;;;;;;5141197;27;20210;-60
2022/05/21 03:38:55;;;;;;;0.95;0.90;;;;;;;;;;5141350;27;20202;-60
2022/05/21 03:41:23;;;;;;;0.80;0.80;;;;;;;;;;5140995;27;20300;-60
2022/05/21 03:43:51;;;;;;;1.15;1.05;;;;;;;;;;5140642;27;20237;-60
2022/05/21 03:46:18;;;;;;;1.02;0.80;;;;;;;;;;5140790;27;20202;-59
2022/05/21 03:48:47;;;;;;;0.80;0.80;;;;;;;;;;5138081;27;20229;-60
2022/05/21 03:51:14;;;;;;;1.17;1.10;;;;;;;;;;5119815;28;20229;-60
2022/05/21 03:53:43;;;;;;;0.82;0.82;;;;;;;;;;5119984;28;20276;-60
2022/05/21 03:56:10;;;;;;;0.90;0.77;;;;;;;;;;5120210;28;20207;-60
2022/05/21 03:58:38;;;;;;;1.00;1.00;;;;;;;;;;5119870;28;20310;-60
2022/05/21 04:01:05;;;;;;;0.95;0.95;;;;;;;;;;5120176;28;20468;-61
2022/05/21 04:03:33;;;;;;;0.98;0.90;;;;;;;;;;5119560;28;20226;-60
2022/05/21 04:06:01;;;;;;;1.15;1.00;;;;;;;;;;5119554;28;20226;-59
2022/05/21 04:08:28;;;;;;;1.05;0.82;;;;;;;;;;5120064;28;20203;-60
2022/05/21 04:10:57;;;;;;;1.42;1.00;;;;;;;;;;5120299;28;20496;-60
2022/05/21 04:13:25;;;;;;;1.10;0.80;;;;;;;;;;5119475;28;20199;-60
2022/05/21 04:15:53;;;;;;;1.20;1.10;;;;;;;;;;5120185;28;20555;-60
2022/05/21 04:18:21;;;;;;;1.25;0.90;;;;;;;;;;5138947;27;20202;-60
2022/05/21 04:20:48;;;;;;;0.93;0.93;;;;;;;;;;5140015;27;20202;-60
2022/05/21 04:23:15;;;;;;;0.93;0.90;;;;;;;;;;5139973;27;20222;-60
2022/05/21 04:25:43;;;;;;;1.00;0.90;;;;;;;;;;5139764;27;20201;-60
2022/05/21 04:28:12;;;;;;;1.15;1.05;;;;;;;;;;5139674;27;20221;-60
2022/05/21 04:30:40;;;;;;;1.63;1.17;;;;;;;;;;5139964;27;20477;-60
2022/05/21 04:33:07;;;;;;;1.40;1.30;;;;;;;;;;5139898;27;20199;-60
2022/05/21 04:38:19;;;;;;;1.10;1.10;;;;;;;;;;5139533;27;20634;-60
2022/05/21 04:40:47;;;;;;;1.25;1.15;;;;;;;;;;5140157;27;20221;-60
2022/05/21 04:43:16;;;;;;;1.33;1.00;;;;;;;;;;5131085;27;20234;-60
2022/05/21 04:45:43;;;;;;;1.50;1.10;;;;;;;;;;5119128;28;20203;-60
2022/05/21 04:48:11;;;;;;;1.00;1.00;;;;;;;;;;5119338;28;20311;-60
2022/05/21 04:50:39;;;;;;;2.05;1.20;;;;;;;;;;5119376;28;20212;-59
2022/05/21 04:53:07;;;;;;;1.20;1.10;;;;;;;;;;5119048;28;20210;-60
2022/05/21 04:55:35;;;;;;;1.25;1.15;;;;;;;;;;5119091;28;20727;-60
2022/05/21 04:58:02;;;;;;;1.33;1.23;;;;;;;;;;5119028;28;20206;-60
2022/05/21 05:00:31;;;;;;;1.17;1.08;;;;;;;;;;5118975;28;20202;-59
2022/05/21 05:02:59;;;;;;;1.85;1.20;;;;;;;;;;5118483;28;20226;-60
2022/05/21 05:05:26;;;;;;;1.20;1.10;;;;;;;;;;5119462;28;20500;-59
2022/05/21 05:07:53;;;;;;;1.65;1.30;;;;;;;;;;5119062;28;20225;-60
2022/05/21 05:10:21;;;;;;;1.10;1.10;;;;;;;;;;5121789;27;20475;-60
2022/05/21 05:12:50;;;;;;;2.10;1.40;;;;;;;;;;5138927;27;20210;-60
2022/05/21 05:15:17;;;;;;;1.60;1.50;;;;;;;;;;5139024;27;20284;-60
2022/05/21 05:17:46;;;;;;;2.17;1.55;;;;;;;;;;5138768;27;20477;-60
2022/05/21 05:20:13;;;;;;;1.67;1.30;;;;;;;;;;5139417;27;20198;-60
2022/05/21 05:22:40;;;;;;;1.63;1.52;;;;;;;;;;5138616;27;20248;-60
2022/05/21 05:25:09;;;;;;;1.88;1.60;;;;;;;;;;5139005;27;20202;-64
2022/05/21 05:27:36;;;;;;;1.95;1.40;;;;;;;;;;5138344;27;20613;-60
2022/05/21 05:30:04;;;;;;;1.85;1.70;;;;;;;;;;5138939;27;20210;-60
2022/05/21 05:32:32;;;;;;;2.05;1.40;;;;;;;;;;5138768;27;20198;-60
2022/05/21 05:35:00;;;;;;;3.63;1.55;;;;;;;;;;5138731;27;20202;-59
2022/05/21 05:37:28;;;;;;;1.40;1.30;;;;;;;;;;5128830;27;20574;-60
2022/05/21 05:39:57;;;;;;;1.73;1.30;;;;;;;;;;5117553;28;20495;-60
2022/05/21 05:42:24;;;;;;;1.20;1.20;;;;;;;;;;5118125;28;20268;-60
2022/05/21 05:44:51;;;;;;;1.67;1.58;;;;;;;;;;5118159;28;20479;-60
2022/05/21 05:47:19;;;;;;;2.85;1.30;;;;;;;;;;5118014;28;20213;-60
2022/05/21 05:49:46;;;;;;;1.30;1.17;;;;;;;;;;5118154;28;20210;-60
2022/05/21 05:52:16;;;;;;;1.20;1.10;;;;;;;;;;5118002;28;20487;-59
2022/05/21 05:54:43;;;;;;;1.17;1.17;;;;;;;;;;5120481;28;20240;-60
2022/05/21 05:57:11;;;;;;;1.50;1.40;;;;;;;;;;5122408;28;20203;-60
2022/05/21 05:59:50;;;;;;;1.80;1.70;;;;;;;;;;5121557;28;20212;-61
2022/05/21 06:05:02;;;;;;;1.63;1.52;;;;;;;;;;5129817;27;20505;-60
2022/05/21 06:07:31;;;;;;;1.50;1.40;;;;;;;;;;5121081;27;20195;-60
2022/05/21 06:10:03;;;;;;;1.48;1.38;;;;;;;;;;5121696;27;20210;-60
2022/05/21 06:12:31;;;;;;;1.75;1.40;;;;;;;;;;5121963;28;20537;-60
2022/05/21 06:14:58;;;;;;;2.40;1.40;;;;;;;;;;5121356;28;20227;-60
2022/05/21 06:17:26;;;;;;;3.28;1.50;;;;;;;;;;5120765;27;20566;-61
2022/05/21 06:19:54;;;;;;;1.60;1.50;;;;;;;;;;5121219;28;20230;-60
2022/05/21 06:22:21;;;;;;;1.60;1.50;;;;;;;;;;5120836;28;20203;-59
2022/05/21 06:24:51;;;;;;;1.40;1.30;;;;;;;;;;5121645;28;20203;-60
2022/05/21 06:27:18;;;;;;;1.98;1.50;;;;;;;;;;5123011;27;20214;-60
2022/05/21 06:29:45;;;;;;;1.65;1.55;;;;;;;;;;5121100;27;20203;-60
2022/05/21 06:32:13;;;;;;;1.70;1.60;;;;;;;;;;5121375;28;20247;-60
2022/05/21 06:34:40;;;;;;;1.65;1.55;;;;;;;;;;5120257;28;20198;-60
2022/05/21 06:37:09;;;;;;;2.15;1.60;;;;;;;;;;5120746;28;20203;-60
2022/05/21 06:39:37;;;;;;;2.05;1.90;;;;;;;;;;5120240;28;20203;-60
2022/05/21 06:42:06;;;;;;;2.00;1.90;;;;;;;;;;5120833;28;20209;-60
2022/05/21 06:44:34;;;;;;;1.63;1.52;;;;;;;;;;5120486;28;20234;-60
2022/05/21 06:47:01;;;;;;;2.25;1.80;;;;;;;;;;5120417;28;20203;-60
2022/05/21 06:49:29;;;;;;;1.90;1.80;;;;;;;;;;5120498;28;20203;-60
2022/05/21 06:51:57;;;;;;;2.30;2.10;;;;;;;;;;5120181;28;20198;-60
2022/05/21 06:54:24;;;;;;;1.95;1.85;;;;;;;;;;5137890;27;20208;-60
2022/05/21 06:56:52;;;;;;;2.03;1.77;;;;;;;;;;5140797;27;20230;-60
2022/05/21 06:59:21;;;;;;;1.83;1.73;;;;;;;;;;5140219;27;20194;-61
2022/05/21 07:01:48;;;;;;;2.40;1.80;;;;;;;;;;5141187;27;20528;-60
2022/05/21 07:04:16;;;;;;;2.50;1.80;;;;;;;;;;5140534;27;20302;-60
2022/05/21 07:09:29;;;;;;;4.15;2.08;;;;;;;;;;5140623;27;20275;-60
2022/05/21 07:11:56;;;;;;;2.10;1.90;;;;;;;;;;5140487;27;20546;-60
2022/05/21 07:14:26;;;;;;;1.98;1.88;;;;;;;;;;5140174;27;20237;-60
2022/05/21 07:16:53;;;;;;;2.33;2.13;;;;;;;;;;5139855;27;20489;-60
2022/05/21 07:19:21;;;;;;;2.00;1.90;;;;;;;;;;5140533;27;20203;-60
2022/05/21 07:21:48;;;;;;;2.05;1.80;;;;;;;;;;5119720;28;20198;-60
2022/05/21 07:24:16;;;;;;;1.75;1.65;;;;;;;;;;5119572;28;20237;-60
2022/05/21 07:26:46;;;;;;;1.95;1.60;;;;;;;;;;5119635;28;20207;-59
2022/05/21 07:29:14;;;;;;;3.17;1.83;;;;;;;;;;5119627;28;20229;-58
2022/05/21 07:31:43;;;;;;;1.70;1.60;;;;;;;;;;5118810;28;20218;-59
2022/05/21 07:34:10;;;;;;;1.90;1.80;;;;;;;;;;5118959;28;20203;-59
2022/05/21 07:36:38;;;;;;;2.78;1.65;;;;;;;;;;5118447;28;20624;-59
2022/05/21 07:39:05;;;;;;;2.13;1.73;;;;;;;;;;5119051;28;20214;-59
2022/05/21 07:41:33;;;;;;;1.70;1.60;;;;;;;;;;5119102;28;20286;-58
2022/05/21 07:44:00;;;;;;;1.50;1.40;;;;;;;;;;5118398;28;20265;-58
2022/05/21 07:46:28;;;;;;;2.05;1.52;;;;;;;;;;5118398;28;20260;-59
2022/05/21 07:48:57;;;;;;;2.28;1.80;;;;;;;;;;5118939;28;20217;-59
2022/05/21 07:51:24;;;;;;;1.90;1.55;;;;;;;;;;5118832;28;20758;-59
2022/05/21 07:53:52;;;;;;;1.50;1.35;;;;;;;;;;5118945;28;20196;-59
2022/05/21 07:56:19;;;;;;;1.42;1.33;;;;;;;;;;5118542;28;20566;-59
2022/05/21 07:58:49;;;;;;;1.77;1.67;;;;;;;;;;5118658;28;20207;-59
2022/05/21 08:01:17;;;;;;;1.95;1.85;;;;;;;;;;5117883;28;20210;-59
2022/05/21 08:03:44;;;;;;;1.60;1.50;;;;;;;;;;5117862;28;20238;-59
2022/05/21 08:06:13;;;;;;;1.70;1.55;;;;;;;;;;5117920;28;20203;-59
2022/05/21 08:08:40;;;;;;;1.90;1.60;;;;;;;;;;5117661;28;20814;-60
2022/05/21 08:11:08;;;;;;;1.80;1.70;;;;;;;;;;5117715;28;20574;-60
2022/05/21 08:13:36;;;;;;;1.80;1.70;;;;;;;;;;5121025;27;20226;-60
2022/05/21 08:16:04;;;;;;;1.80;1.50;;;;;;;;;;5138042;27;20217;-60
2022/05/21 08:18:31;;;;;;;1.80;1.70;;;;;;;;;;5137069;27;20283;-59
2022/05/21 08:20:59;;;;;;;1.80;1.70;;;;;;;;;;5129206;27;20601;-60
2022/05/21 08:28:57;;;;;;;2.97;1.77;;;;;;;;;;5117018;28;20198;-59
2022/05/21 08:31:25;;;;;;;2.28;1.60;;;;;;;;;;5116899;28;20213;-60
2022/05/21 08:33:52;;;;;;;2.05;1.95;;;;;;;;;;5116687;27;20658;-59
2022/05/21 08:36:20;;;;;;;2.13;1.90;;;;;;;;;;5116830;28;20207;-59
2022/05/21 08:38:49;;;;;;;2.13;1.88;;;;;;;;;;5117050;27;20210;-59
2022/05/21 08:41:20;;;;;;;2.33;1.92;;;;;;;;;;5116445;28;20195;-59
2022/05/21 08:43:52;;;;;;;2.67;1.88;;;;;;;;;;5115976;28;20664;-58
2022/05/21 08:46:24;;;;;;;2.08;1.98;;;;;;;;;;5116706;28;20203;-58
2022/05/21 08:48:55;;;;;;;3.20;2.28;;;;;;;;;;5116304;28;20578;-58
2022/05/21 08:51:24;;;;;;;2.20;2.10;;;;;;;;;;5116182;28;20203;-59
2022/05/21 08:53:54;;;;;;;2.20;2.10;;;;;;;;;;5116448;28;20199;-60
2022/05/21 08:56:22;;;;;;;2.13;2.03;;;;;;;;;;5115967;28;20327;-60
2022/05/21 08:58:50;;;;;;;2.20;1.98;;;;;;;;;;5115688;28;20573;-60
2022/05/21 09:01:19;;;;;;;2.17;1.95;;;;;;;;;;5115746;28;20305;-60
2022/05/21 09:03:46;;;;;;;2.05;1.90;;;;;;;;;;5119365;27;20237;-61
2022/05/21 09:06:24;;;;;;;3.47;1.98;;;;;;;;;;5136547;27;20202;-60
2022/05/21 09:08:54;;;;;;;2.30;2.10;;;;;;;;;;5136838;27;20208;-59
2022/05/21 09:11:26;;;;;;;2.15;1.95;;;;;;;;;;5135656;27;20221;-59
2022/05/21 09:14:01;;;;;;;3.92;2.17;;;;;;;;;;5135506;27;20233;-60
2022/05/21 09:19:13;;;;;;;2.20;2.10;;;;;;;;;;5135729;27;20193;-60
2022/05/21 09:21:45;;;;;;;2.10;1.90;;;;;;;;;;5135631;27;20195;-59
2022/05/21 09:24:32;;;;;;;2.33;1.85;;;;;;;;;;5136127;27;20234;-60
2022/05/21 09:27:01;;;;;;;2.03;1.75;;;;;;;;;;5136058;27;20229;-67
2022/05/21 09:29:31;;;;;;;2.78;1.95;;;;;;;;;;5136365;27;20213;-60
2022/05/21 09:31:59;;;;;;;3.00;2.05;;;;;;;;;;5133245;27;20195;-60
2022/05/21 09:34:27;;;;;;;3.05;1.92;;;;;;;;;;5115448;28;20209;-59
2022/05/21 09:36:55;;;;;;;5.28;2.03;;;;;;;;;;5115287;28;20279;-59
2022/05/21 09:39:32;;;;;;;4.43;1.73;;;;;;;;;;5114881;28;20582;-59
2022/05/21 09:45:21;;;;;;;4.05;1.60;;;;;;;;;;5115228;28;20202;-58
2022/05/21 09:47:48;;;;;;;4.13;1.75;;;;;;;;;;5124667;28;20198;-60
2022/05/21 09:50:21;;;;;;;6.95;1.88;;;;;;;;;;5134011;28;20212;-59
2022/05/21 09:52:49;;;;;;;1.85;1.70;;;;;;;;;;5135543;28;20204;-59
2022/05/21 09:55:20;;;;;;;3.78;1.50;;;;;;;;;;5134649;28;20199;-60
2022/05/21 09:57:49;;;;;;;2.00;1.52;;;;;;;;;;5135614;28;20198;-59
2022/05/21 10:00:21;;;;;;;2.75;1.50;;;;;;;;;;5136347;28;20217;-59
2022/05/21 10:02:49;;;;;;;2.50;1.50;;;;;;;;;;5125992;28;20544;-59
2022/05/21 10:05:21;;;;;;;2.95;1.50;;;;;;;;;;5115777;28;20228;-58
2022/05/21 10:13:24;;;;;;;3.33;1.55;;;;;;;;;;5115306;28;20182;-59
2022/05/21 10:15:56;;;;;;;2.75;1.13;;;;;;;;;;5115650;28;20234;-64
2022/05/21 10:18:27;;;;;;;2.60;1.33;;;;;;;;;;5114764;28;20195;-60
2022/05/21 10:20:56;;;;;;;2.50;1.35;;;;;;;;;;5115683;28;20206;-59
2022/05/21 10:23:32;;;;;;;3.33;1.48;;;;;;;;;;5115057;28;20609;-60
2022/05/21 10:26:07;;;;;;;2.88;1.35;;;;;;;;;;5114958;28;20712;-60
2022/05/21 10:28:44;;;;;;;2.38;1.30;;;;;;;;;;5114902;28;20232;-60
2022/05/21 10:31:22;;;;;;;2.65;1.30;;;;;;;;;;5115492;28;20205;-60
2022/05/21 10:34:03;;;;;;;2.75;1.25;;;;;;;;;;5114864;28;20199;-61
2022/05/21 10:36:43;;;;;;;1.73;1.30;;;;;;;;;;5113742;28;20213;-61
2022/05/21 10:39:29;;;;;;;1.63;1.27;;;;;;;;;;5114460;28;20207;-60
2022/05/21 10:42:14;;;;;;;3.72;1.25;;;;;;;;;;5116925;28;20206;-61
2022/05/21 10:44:50;;;;;;;2.33;1.23;;;;;;;;;;5118087;28;20238;-61
2022/05/21 10:47:25;;;;;;;1.70;1.27;;;;;;;;;;5136035;27;20194;-61
2022/05/21 10:50:11;;;;;;;2.92;1.25;;;;;;;;;;5139625;27;20201;-61
2022/05/21 10:52:45;;;;;;;1.70;1.15;;;;;;;;;;5139413;27;20247;-61
2022/05/21 10:55:18;;;;;;;1.33;1.20;;;;;;;;;;5138451;27;20198;-61
2022/05/21 10:57:51;;;;;;;1.52;1.10;;;;;;;;;;5138770;27;20213;-60
2022/05/21 11:00:23;;;;;;;1.40;1.10;;;;;;;;;;5138742;27;20202;-60
2022/05/21 11:03:17;;;;;;;2.90;1.27;;;;;;;;;;5138380;27;20217;-62
2022/05/21 11:06:04;;;;;;;4.47;1.40;;;;;;;;;;5090545;27;20225;-61
2022/05/21 11:08:34;;;;;;;3.00;1.13;;;;;;;;;;5138528;27;20209;-60
2022/05/21 11:11:04;;;;;;;3.22;1.13;;;;;;;;;;5138467;27;20622;-59
2022/05/21 11:13:34;;;;;;;3.70;1.30;;;;;;;;;;5127143;27;20612;-59
2022/05/21 11:16:05;;;;;;;3.65;1.02;;;;;;;;;;5117394;28;20601;-61
2022/05/21 11:18:37;;;;;;;5.40;1.20;;;;;;;;;;5118072;28;20289;-60
2022/05/21 11:21:08;;;;;;;1.77;1.00;;;;;;;;;;5117310;28;20210;-61
2022/05/21 11:23:39;;;;;;;2.42;1.10;;;;;;;;;;5118442;28;20579;-61
2022/05/21 11:26:10;;;;;;;2.38;1.00;;;;;;;;;;5117720;28;20223;-61
2022/05/21 11:28:43;;;;;;;2.60;1.13;;;;;;;;;;5118197;28;20525;-61
2022/05/21 11:31:15;;;;;;;2.65;1.10;;;;;;;;;;5117463;28;20264;-61
2022/05/21 11:39:20;;;;;;;2.83;1.00;;;;;;;;;;5116802;28;20198;-61
2022/05/21 11:41:58;;;;;;;4.07;1.20;;;;;;;;;;5118543;27;20597;-65
2022/05/21 11:47:35;;;;;;;2.08;1.00;;;;;;;;;;5116634;28;20191;-60
2022/05/21 11:50:11;;;;;;;2.58;1.20;;;;;;;;;;5114139;28;20203;-60
2022/05/21 11:53:00;;;;;;;1.35;0.82;;;;;;;;;;5116995;28;20203;-61
2022/05/21 11:55:30;;;;;;;2.42;1.20;;;;;;;;;;5115972;28;20210;-61
2022/05/21 11:57:59;;;;;;;2.08;1.13;;;;;;;;;;5116907;28;20493;-61
2022/05/21 12:00:59;;;;;;;2.53;1.25;;;;;;;;;;5117002;28;20217;-60
2022/05/21 12:03:46;;;;;;;2.15;1.10;;;;;;;;;;5116967;28;20203;-61
2022/05/21 12:06:26;;;;;;;1.25;0.82;;;;;;;;;;5116847;28;20234;-61
2022/05/21 12:09:09;;;;;;;1.30;0.90;;;;;;;;;;5129627;27;20208;-61
2022/05/21 12:11:46;;;;;;;1.75;0.98;;;;;;;;;;5137558;27;20212;-60
2022/05/21 12:14:21;;;;;;;2.30;1.00;;;;;;;;;;5136903;27;20236;-61
2022/05/21 12:16:50;;;;;;;4.15;1.27;;;;;;;;;;5136944;27;20630;-61
2022/05/21 12:19:36;;;;;;;1.75;0.90;;;;;;;;;;5120965;27;20199;-61
2022/05/21 12:22:05;;;;;;;1.30;0.80;;;;;;;;;;5116582;28;20209;-61
2022/05/21 12:24:41;;;;;;;1.70;0.80;;;;;;;;;;5116683;28;20625;-61
2022/05/21 12:27:15;;;;;;;0.93;0.80;;;;;;;;;;5116544;28;20207;-61
2022/05/21 12:29:45;;;;;;;1.02;0.90;;;;;;;;;;5134789;27;20293;-61
2022/05/21 12:32:16;;;;;;;2.65;0.93;;;;;;;;;;5137408;27;20797;-61
2022/05/21 12:35:02;;;;;;;1.52;0.95;;;;;;;;;;5137773;27;20241;-61
2022/05/21 12:37:34;;;;;;;1.13;0.75;;;;;;;;;;5136264;27;20202;-60
2022/05/21 12:40:09;;;;;;;2.28;0.70;;;;;;;;;;5116329;28;20266;-61
2022/05/21 12:42:39;;;;;;;1.35;0.73;;;;;;;;;;5115927;28;20837;-60
2022/05/21 12:45:07;;;;;;;1.10;0.95;;;;;;;;;;5115444;28;20229;-61
2022/05/21 12:47:36;;;;;;;1.15;0.90;;;;;;;;;;5116546;27;20217;-61
2022/05/21 12:50:05;;;;;;;1.50;0.85;;;;;;;;;;5137288;27;20210;-61
2022/05/21 12:52:38;;;;;;;1.77;0.85;;;;;;;;;;5136708;27;20198;-61
2022/05/21 12:55:21;;;;;;;1.75;1.00;;;;;;;;;;5136832;27;20206;-61
2022/05/21 12:57:49;;;;;;;1.60;0.85;;;;;;;;;;5133599;27;20209;-61
2022/05/21 13:00:18;;;;;;;1.20;0.80;;;;;;;;;;5115727;28;20210;-60
2022/05/21 13:02:46;;;;;;;1.88;1.20;;;;;;;;;;5115917;28;20700;-61
2022/05/21 13:05:18;;;;;;;1.35;0.90;;;;;;;;;;5115310;28;20233;-61
2022/05/21 13:07:49;;;;;;;1.35;0.95;;;;;;;;;;5117401;27;20203;-61
2022/05/21 13:10:20;;;;;;;1.15;0.88;;;;;;;;;;5136026;27;20206;-61
2022/05/21 13:12:50;;;;;;;0.70;0.70;;;;;;;;;;5136711;27;20494;-61
2022/05/21 13:15:20;;;;;;;0.80;0.80;;;;;;;;;;5135823;27;20226;-60
2022/05/21 13:17:51;;;;;;;1.60;0.80;;;;;;;;;;5133811;27;20241;-61
2022/05/21 13:20:25;;;;;;;0.95;0.77;;;;;;;;;;5114657;28;20226;-60
2022/05/21 13:23:07;;;;;;;1.05;0.93;;;;;;;;;;5116013;28;20214;-61
2022/05/21 13:25:34;;;;;;;2.05;0.82;;;;;;;;;;5116112;28;20227;-61
2022/05/21 13:28:12;;;;;;;0.90;0.70;;;;;;;;;;5119486;28;20201;-60
2022/05/21 13:30:45;;;;;;;0.77;0.73;;;;;;;;;;5135457;27;20268;-60
2022/05/21 13:33:15;;;;;;;2.10;0.98;;;;;;;;;;5135408;27;20712;-61
2022/05/21 13:35:44;;;;;;;1.25;0.82;;;;;;;;;;5136034;27;20659;-60
2022/05/21 13:38:14;;;;;;;2.25;0.90;;;;;;;;;;5129733;27;20206;-60
2022/05/21 13:40:46;;;;;;;2.47;1.10;;;;;;;;;;5115256;28;20211;-61
2022/05/21 13:43:15;;;;;;;3.22;1.00;;;;;;;;;;5115456;28;20203;-60
2022/05/21 13:45:51;;;;;;;3.00;1.00;;;;;;;;;;5114648;28;20226;-64
2022/05/21 13:48:21;;;;;;;2.10;0.98;;;;;;;;;;5119899;28;20194;-60
2022/05/21 13:50:49;;;;;;;1.90;0.90;;;;;;;;;;5135836;28;20210;-60
2022/05/21 13:53:24;;;;;;;1.50;1.10;;;;;;;;;;5135993;28;20580;-59
2022/05/21 13:55:58;;;;;;;1.13;0.68;;;;;;;;;;5135937;28;20197;-61
2022/05/21 13:58:28;;;;;;;2.30;0.85;;;;;;;;;;5127936;28;20205;-61
2022/05/21 14:00:57;;;;;;;2.30;0.80;;;;;;;;;;5114457;28;20206;-61
2022/05/21 14:03:28;;;;;;;1.77;0.90;;;;;;;;;;5113733;28;20770;-60
2022/05/21 14:05:56;;;;;;;3.28;0.90;;;;;;;;;;5114263;28;20215;-61
2022/05/21 14:08:33;;;;;;;2.33;0.90;;;;;;;;;;5120839;28;20592;-61
2022/05/21 14:11:02;;;;;;;1.77;0.90;;;;;;;;;;5133979;28;20206;-62
2022/05/21 14:13:31;;;;;;;1.92;0.77;;;;;;;;;;5134538;28;20221;-61
2022/05/21 14:15:59;;;;;;;1.08;0.70;;;;;;;;;;5135515;27;20633;-61
2022/05/21 14:18:28;;;;;;;1.65;0.70;;;;;;;;;;5130603;27;20205;-61
2022/05/21 14:21:00;;;;;;;1.55;0.80;;;;;;;;;;5118592;28;20202;-61
2022/05/21 14:23:30;;;;;;;1.67;0.65;;;;;;;;;;5117965;28;20213;-61
2022/05/21 14:26:19;;;;;;;2.15;0.70;;;;;;;;;;5117596;28;20215;-60
2022/05/21 14:28:47;;;;;;;1.42;0.90;;;;;;;;;;5127357;27;20650;-62
2022/05/21 14:31:28;;;;;;;1.27;0.80;;;;;;;;;;5138228;27;20205;-61
2022/05/21 14:33:57;;;;;;;1.23;0.80;;;;;;;;;;5138657;27;20679;-61
2022/05/21 14:36:26;;;;;;;1.50;0.98;;;;;;;;;;5138563;27;20198;-61
2022/05/21 14:38:53;;;;;;;3.40;0.95;;;;;;;;;;5127968;27;20561;-62
2022/05/21 14:41:30;;;;;;;2.05;1.00;;;;;;;;;;5118672;28;20203;-60
2022/05/21 14:43:58;;;;;;;1.83;1.00;;;;;;;;;;5117818;28;20203;-60
2022/05/21 14:49:11;;;;;;;2.08;0.88;;;;;;;;;;5129626;27;20194;-61
2022/05/21 14:54:28;;;;;;;1.85;0.70;;;;;;;;;;5138238;27;20194;-61
2022/05/21 14:56:57;;;;;;;1.25;0.85;;;;;;;;;;5138905;27;20199;-61
2022/05/21 14:59:25;;;;;;;2.28;0.90;;;;;;;;;;5123539;27;20248;-61
2022/05/21 15:01:52;;;;;;;1.38;0.88;;;;;;;;;;5117397;28;20202;-60
2022/05/21 15:04:21;;;;;;;2.33;0.93;;;;;;;;;;5117000;28;20732;-61
2022/05/21 15:06:48;;;;;;;1.15;0.90;;;;;;;;;;5116870;28;20321;-61
2022/05/21 15:09:16;;;;;;;1.65;0.88;;;;;;;;;;5129599;27;20728;-61
2022/05/21 15:11:43;;;;;;;1.90;0.80;;;;;;;;;;5137584;27;20202;-60
2022/05/21 15:14:13;;;;;;;2.15;0.77;;;;;;;;;;5137107;27;20242;-60
2022/05/21 15:16:40;;;;;;;2.67;0.95;;;;;;;;;;5136858;27;20195;-60
2022/05/21 15:19:08;;;;;;;1.88;0.90;;;;;;;;;;5125827;27;20199;-61
2022/05/21 15:21:40;;;;;;;1.52;0.80;;;;;;;;;;5116245;28;20570;-61
2022/05/21 15:24:07;;;;;;;1.50;0.90;;;;;;;;;;5117189;28;20226;-61
2022/05/21 15:26:35;;;;;;;2.78;1.10;;;;;;;;;;5116116;28;20222;-60
2022/05/21 15:29:03;;;;;;;2.35;0.98;;;;;;;;;;5126190;27;20198;-60
2022/05/21 15:31:33;;;;;;;1.83;0.95;;;;;;;;;;5137453;27;20198;-61
2022/05/21 15:34:00;;;;;;;1.95;0.95;;;;;;;;;;5137297;27;20229;-61
2022/05/21 15:36:28;;;;;;;1.33;1.00;;;;;;;;;;5137838;27;20516;-61
2022/05/21 15:38:55;;;;;;;1.75;1.00;;;;;;;;;;5128505;27;20224;-61
2022/05/21 15:41:24;;;;;;;2.42;1.10;;;;;;;;;;5117907;28;20206;-61
2022/05/21 15:43:54;;;;;;;2.83;0.85;;;;;;;;;;5116831;28;20256;-61
2022/05/21 15:46:24;;;;;;;1.27;0.90;;;;;;;;;;5117480;28;20313;-61